Time;durP1;ratioP1;P1;durP2;ratioP2;P2;SDS_P1;SDS_P2;PMS_P1;PMS_P2;Temp;Humidity;BMP_temperature;BMP_pressure;BME280_temperature;BME280_humidity;BME280_pressure;Samples;Min_cycle;Max_cycle;Signal;HPM_P1;HPM_P2
2021/11/30 00:01:30;;;;;;;;;12.00;11.25;;;;;7.65;56.61;101548.78;5020938;28;45409;-66
2021/11/30 00:03:56;;;;;;;;;10.75;8.25;;;;;7.61;56.93;101542.59;5020916;28;45318;-66
2021/11/30 00:06:21;;;;;;;;;11.00;10.25;;;;;7.71;56.83;101548.72;5020723;28;45961;-66
2021/11/30 00:08:48;;;;;;;;;13.50;11.00;;;;;7.71;57.03;101553.16;5021081;28;45330;-66
2021/11/30 00:11:14;;;;;;;;;9.50;8.75;;;;;7.68;56.99;101548.75;5021085;28;45469;-66
2021/11/30 00:13:41;;;;;;;;;8.00;8.00;;;;;7.62;57.22;101532.88;5020870;28;45387;-66
2021/11/30 00:16:07;;;;;;;;;12.50;11.25;;;;;7.74;57.15;101564.66;5020753;28;46302;-66
2021/11/30 00:18:34;;;;;;;;;12.50;10.25;;;;;7.76;57.34;101554.88;5020819;28;45664;-66
2021/11/30 00:21:10;;;;;;;;;13.00;10.00;;;;;7.76;57.00;101562.00;5020458;28;45352;-66
2021/11/30 00:23:37;;;;;;;;;11.75;7.25;;;;;7.74;56.96;101547.84;5020734;28;45504;-66
2021/11/30 00:26:04;;;;;;;;;12.25;11.25;;;;;7.78;57.28;101554.88;5020723;28;46080;-66
2021/11/30 00:28:29;;;;;;;;;13.00;11.00;;;;;7.77;57.12;101550.47;5020859;28;45251;-66
2021/11/30 00:30:55;;;;;;;;;13.00;12.25;;;;;7.82;57.39;101547.75;5020832;28;45503;-66
2021/11/30 00:33:21;;;;;;;;;10.00;10.00;;;;;7.78;56.95;101534.53;5020613;28;45219;-65
2021/11/30 00:35:46;;;;;;;;;11.25;11.00;;;;;7.85;57.33;101545.06;5020822;28;46063;-66
2021/11/30 00:38:16;;;;;;;;;11.00;11.00;;;;;7.87;57.28;101535.31;5020519;28;45518;-66
2021/11/30 00:40:43;;;;;;;;;10.50;10.00;;;;;7.89;57.34;101553.03;5020639;28;45253;-66
2021/11/30 00:43:10;;;;;;;;;12.25;9.75;;;;;7.90;57.40;101548.56;5019835;28;45434;-65
2021/11/30 00:45:39;;;;;;;;;9.75;8.00;;;;;7.92;57.40;101550.34;5020423;28;46625;-65
2021/11/30 00:48:08;;;;;;;;;12.75;9.50;;;;;7.90;57.31;101541.50;5020115;28;45381;-66
2021/11/30 00:50:36;;;;;;;;;8.00;8.00;;;;;7.92;57.38;101533.53;5020229;28;45415;-66
2021/11/30 00:53:02;;;;;;;;;13.00;11.00;;;;;7.91;57.45;101532.63;5020301;28;45490;-66
2021/11/30 00:55:27;;;;;;;;;11.00;10.00;;;;;7.90;57.49;101536.19;5020453;28;45327;-66
2021/11/30 00:57:52;;;;;;;;;16.25;12.50;;;;;7.88;57.69;101529.97;5020458;28;45360;-66
2021/11/30 01:00:19;;;;;;;;;12.50;11.00;;;;;7.91;57.93;101537.94;5020647;28;45222;-66
2021/11/30 01:02:47;;;;;;;;;12.25;11.00;;;;;7.93;57.65;101536.13;5020136;28;45469;-65
2021/11/30 01:05:15;;;;;;;;;13.00;12.25;;;;;7.93;57.72;101536.13;5020340;28;46425;-66
2021/11/30 01:07:41;;;;;;;;;12.00;11.75;;;;;7.92;57.48;101529.06;5020292;28;45248;-65
2021/11/30 01:10:13;;;;;;;;;12.50;11.75;;;;;7.96;57.67;101533.47;5020406;28;45349;-66
2021/11/30 01:12:39;;;;;;;;;14.75;14.75;;;;;7.96;57.82;101524.59;5020119;28;45299;-66
2021/11/30 01:15:09;;;;;;;;;11.75;9.50;;;;;7.98;57.57;101526.38;5020258;28;46081;-65
2021/11/30 01:17:34;;;;;;;;;13.00;13.00;;;;;7.97;57.48;101524.59;5020087;28;45326;-66
2021/11/30 01:20:00;;;;;;;;;14.25;9.50;;;;;7.96;57.44;101516.63;5035274;28;45390;-66
2021/11/30 01:22:25;;;;;;;;;11.75;11.75;;;;;7.98;57.76;101525.47;5019741;28;45710;-66
2021/11/30 01:24:50;;;;;;;;;11.25;9.50;;;;;8.01;57.73;101521.91;5019476;28;46272;-66
2021/11/30 01:27:16;;;;;;;;;14.00;11.00;;;;;8.01;58.08;101514.81;5019875;28;45380;-66
2021/11/30 01:29:41;;;;;;;;;13.50;11.75;;;;;8.02;57.72;101511.28;5019644;28;45253;-66
2021/11/30 01:32:07;;;;;;;;;13.50;10.00;;;;;8.04;57.90;101514.78;5019699;28;45300;-66
2021/11/30 01:34:33;;;;;;;;;12.25;10.50;;;;;8.03;57.55;101507.69;5019641;28;45603;-66
2021/11/30 01:36:58;;;;;;;;;10.25;9.00;;;;;8.02;57.79;101505.94;5019767;28;45405;-65
2021/11/30 01:39:24;;;;;;;;;10.00;10.00;;;;;8.06;57.69;101513.00;5020163;28;45216;-66
2021/11/30 01:41:50;;;;;;;;;12.75;11.75;;;;;8.05;58.01;101510.34;5019712;28;45509;-66
2021/11/30 01:44:37;;;;;;;;;14.25;13.00;;;;;8.06;57.89;101514.78;5019052;28;47171;-66
2021/11/30 01:47:24;;;;;;;;;13.00;13.00;;;;;8.04;57.98;101509.47;5007499;28;45452;-65
2021/11/30 01:49:49;;;;;;;;;11.25;10.00;;;;;8.07;57.71;101509.44;5019399;28;45228;-65
2021/11/30 01:52:15;;;;;;;;;14.50;11.75;;;;;8.08;57.83;101500.56;5019743;28;45505;-66
2021/11/30 01:54:42;;;;;;;;;12.00;11.25;;;;;8.08;58.10;101489.91;5019553;28;46116;-66
2021/11/30 01:57:09;;;;;;;;;10.75;9.00;;;;;8.12;58.00;101485.47;5019654;28;45326;-66
2021/11/30 01:59:36;;;;;;;;;13.00;9.00;;;;;8.11;57.64;101489.88;5019860;28;46678;-66
2021/11/30 02:02:02;;;;;;;;;7.75;6.75;;;;;8.08;58.12;101479.28;5019703;28;45303;-66
2021/11/30 02:04:28;;;;;;;;;18.25;14.00;;;;;8.12;58.16;101485.47;5019139;28;46016;-66
2021/11/30 02:06:53;;;;;;;;;11.00;9.75;;;;;8.09;58.12;101475.72;5019616;28;45888;-66
2021/11/30 02:09:19;;;;;;;;;11.25;10.25;;;;;8.13;58.24;101485.44;5019692;28;45460;-66
2021/11/30 02:11:44;;;;;;;;;12.50;11.50;;;;;8.11;58.46;101481.91;5018811;28;45493;-66
2021/11/30 02:14:10;;;;;;;;;12.00;12.00;;;;;8.13;58.23;101473.91;5017688;28;45292;-67
2021/11/30 02:16:36;;;;;;;;;12.25;10.50;;;;;8.14;58.14;101465.06;5019461;28;45405;-66
2021/11/30 02:19:04;;;;;;;;;14.75;11.75;;;;;8.15;58.17;101475.69;5019243;28;45346;-66
2021/11/30 02:21:37;;;;;;;;;11.25;8.75;;;;;8.17;58.29;101480.97;5019436;28;45390;-65
2021/11/30 02:24:04;;;;;;;;;13.00;11.25;;;;;8.21;58.13;101484.50;5019130;28;46943;-66
2021/11/30 02:26:32;;;;;;;;;13.00;11.75;;;;;8.21;58.18;101466.75;5019282;28;45694;-66
2021/11/30 02:28:57;;;;;;;;;11.25;11.00;;;;;8.25;58.54;101464.94;5019359;28;45244;-66
2021/11/30 02:31:28;;;;;;;;;11.50;9.75;;;;;8.23;58.05;101464.06;5018676;28;45263;-66
2021/11/30 02:33:54;;;;;;;;;11.00;11.00;;;;;8.21;58.13;101460.56;5034047;28;47076;-66
2021/11/30 02:36:38;;;;;;;;;13.75;12.00;;;;;8.26;58.11;101461.38;5019322;28;45236;-66
2021/11/30 02:39:06;;;;;;;;;13.50;12.25;;;;;8.29;58.26;101464.88;5015384;28;45328;-66
2021/11/30 02:41:33;;;;;;;;;14.50;11.75;;;;;8.29;58.27;101451.56;5022411;28;45311;-66
2021/11/30 02:43:58;;;;;;;;;11.50;11.50;;;;;8.29;58.11;101450.72;5021729;28;45509;-66
2021/11/30 02:46:36;;;;;;;;;13.00;13.00;;;;;8.32;58.17;101448.88;5009224;28;45313;-66
2021/11/30 02:49:07;;;;;;;;;10.25;10.25;;;;;8.32;58.13;101443.56;5022008;28;45318;-66
2021/11/30 02:51:34;;;;;;;;;13.00;11.25;;;;;8.34;58.42;101440.88;5021884;28;45425;-66
2021/11/30 02:54:04;;;;;;;;;12.00;10.25;;;;;8.32;58.31;101426.75;5021784;28;46479;-66
2021/11/30 02:56:30;;;;;;;;;12.25;11.75;;;;;8.32;57.93;101427.59;5022232;28;45457;-66
2021/11/30 02:58:56;;;;;;;;;13.50;12.00;;;;;8.31;57.88;101438.25;5021844;28;45386;-66
2021/11/30 03:01:22;;;;;;;;;12.75;11.50;;;;;8.37;57.83;101446.19;5021724;28;45426;-66
2021/11/30 03:03:48;;;;;;;;;13.00;10.75;;;;;8.37;57.98;101443.53;5021572;28;46146;-66
2021/11/30 03:06:13;;;;;;;;;11.00;11.00;;;;;8.40;57.67;101442.59;5022366;28;45263;-65
2021/11/30 03:08:40;;;;;;;;;9.25;8.75;;;;;8.37;57.78;101450.59;5022281;28;45233;-66
2021/11/30 03:11:07;;;;;;;;;12.00;12.00;;;;;8.37;57.92;101458.56;5022240;28;45322;-66
2021/11/30 03:13:32;;;;;;;;;17.00;13.00;;;;;8.37;57.82;101451.50;5019903;28;46233;-66
2021/11/30 03:15:58;;;;;;;;;9.75;9.75;;;;;8.37;57.85;101445.28;5022166;28;45227;-66
2021/11/30 03:18:23;;;;;;;;;12.75;11.50;;;;;8.31;57.76;101439.13;5021814;28;45481;-66
2021/11/30 03:20:49;;;;;;;;;14.75;12.25;;;;;8.27;58.02;101439.19;5013966;28;45483;-66
2021/11/30 03:23:14;;;;;;;;;14.00;14.00;;;;;8.24;57.64;101426.81;5019649;28;45315;-66
2021/11/30 03:25:42;;;;;;;;;9.75;9.75;;;;;8.26;58.12;101427.66;5021989;28;45149;-66
2021/11/30 03:28:08;;;;;;;;;11.75;11.75;;;;;8.30;58.24;101437.41;5021924;28;45260;-66
2021/11/30 03:30:36;;;;;;;;;12.50;12.50;;;;;8.31;58.10;101446.25;5022054;28;45364;-66
2021/11/30 03:35:45;;;;;;;;;12.50;11.75;;;;;8.33;58.10;101442.66;5021801;28;46013;-66
2021/11/30 03:38:11;;;;;;;;;12.75;12.00;;;;;8.36;58.17;101465.69;5021928;28;45339;-65
2021/11/30 03:40:36;;;;;;;;;15.75;13.75;;;;;8.30;57.96;101453.34;5021553;28;45526;-66
2021/11/30 03:43:01;;;;;;;;;10.25;9.00;;;;;8.34;58.09;101452.41;5020707;28;46142;-66
2021/11/30 03:45:27;;;;;;;;;12.00;10.25;;;;;8.39;58.04;101468.31;5021293;28;45397;-65
2021/11/30 03:47:52;;;;;;;;;14.00;13.25;;;;;8.41;58.02;101470.97;5020964;28;45256;-66
2021/11/30 03:50:17;;;;;;;;;20.75;16.00;;;;;8.40;57.94;101469.19;5021255;28;45358;-66
2021/11/30 03:52:43;;;;;;;;;12.25;11.00;;;;;8.42;57.90;101470.94;5021485;28;45393;-66
2021/11/30 03:55:08;;;;;;;;;11.50;9.50;;;;;8.42;58.07;101465.63;5021515;28;45355;-66
2021/11/30 03:57:34;;;;;;;;;14.75;13.00;;;;;8.43;58.08;101467.41;5021490;28;45473;-66
2021/11/30 04:00:04;;;;;;;;;13.75;12.25;;;;;8.43;58.17;101462.09;5020655;28;45220;-66
2021/11/30 04:02:29;;;;;;;;;13.75;13.00;;;;;8.46;58.09;101469.16;5021000;28;46343;-66
2021/11/30 04:04:55;;;;;;;;;14.25;12.25;;;;;8.47;58.23;101469.16;5020965;28;45473;-66
2021/11/30 04:07:20;;;;;;;;;11.75;11.25;;;;;8.48;58.86;101462.91;5021141;28;45357;-66
2021/11/30 04:09:45;;;;;;;;;15.25;12.00;;;;;8.46;58.40;101455.84;5021293;28;45511;-66
2021/11/30 04:12:11;;;;;;;;;11.50;8.50;;;;;8.49;58.48;101464.69;5020950;28;46036;-66
2021/11/30 04:14:36;;;;;;;;;16.00;13.25;;;;;8.44;58.79;101455.00;5020364;28;45347;-66
2021/11/30 04:17:02;;;;;;;;;12.25;11.75;;;;;8.44;58.96;101452.34;5021277;28;45310;-66
2021/11/30 04:19:28;;;;;;;;;12.25;12.25;;;;;8.48;58.91;101462.03;5020928;28;45549;-66
2021/11/30 04:21:53;;;;;;;;;17.25;12.50;;;;;8.46;58.92;101459.38;5007732;28;46169;-66
2021/11/30 04:24:18;;;;;;;;;13.25;12.00;;;;;8.49;59.00;101463.81;5020909;28;45303;-66
2021/11/30 04:26:44;;;;;;;;;13.00;10.75;;;;;8.47;58.98;101457.59;5020649;28;45474;-66
2021/11/30 04:29:09;;;;;;;;;15.25;13.00;;;;;8.47;59.10;101462.91;5020939;28;45531;-66
2021/11/30 04:31:35;;;;;;;;;15.25;13.75;;;;;8.44;58.89;101455.00;5020607;28;45941;-65
2021/11/30 04:34:03;;;;;;;;;14.50;13.50;;;;;8.45;58.65;101452.31;5020214;28;45157;-66
2021/11/30 04:36:29;;;;;;;;;13.25;11.50;;;;;8.44;59.25;101450.56;5020733;28;45382;-66
2021/11/30 04:38:56;;;;;;;;;11.50;10.50;;;;;8.45;59.12;101446.09;5020653;28;45423;-66
2021/11/30 04:41:21;;;;;;;;;13.25;11.50;;;;;8.42;59.12;101427.47;5035864;28;47487;-66
2021/11/30 04:43:47;;;;;;;;;14.00;13.00;;;;;8.38;59.30;101439.94;5020350;28;45237;-66
2021/11/30 04:46:14;;;;;;;;;12.75;11.75;;;;;8.38;59.37;101439.94;5020598;28;45443;-66
2021/11/30 04:48:43;;;;;;;;;13.00;11.75;;;;;8.38;59.60;101439.06;5020528;28;45364;-66
2021/11/30 04:51:12;;;;;;;;;16.75;13.00;;;;;8.42;59.69;101424.81;5020292;28;46969;-66
2021/11/30 04:53:39;;;;;;;;;13.00;13.00;;;;;8.40;59.47;101419.50;5020584;28;45472;-66
2021/11/30 04:56:05;;;;;;;;;14.75;13.50;;;;;8.44;59.48;101418.63;5020381;28;45276;-66
2021/11/30 04:58:30;;;;;;;;;13.75;12.00;;;;;8.34;59.63;101415.16;5020545;28;45345;-66
2021/11/30 05:00:56;;;;;;;;;10.25;9.00;;;;;8.46;59.52;101442.56;5019439;28;45447;-65
2021/11/30 05:03:21;;;;;;;;;14.00;12.00;;;;;8.45;59.68;101443.44;5020172;28;45371;-65
2021/11/30 05:05:47;;;;;;;;;15.25;13.75;;;;;8.43;59.76;101442.59;5020326;28;45317;-65
2021/11/30 05:08:12;;;;;;;;;13.00;11.00;;;;;8.40;59.64;101443.47;5020332;28;45179;-65
2021/11/30 05:10:38;;;;;;;;;10.50;10.50;;;;;8.41;59.71;101439.03;5019773;28;45560;-66
2021/11/30 05:13:04;;;;;;;;;13.00;12.00;;;;;8.43;59.79;101443.47;5017351;28;45445;-65
2021/11/30 05:15:29;;;;;;;;;14.50;12.00;;;;;8.42;59.80;101443.44;5019906;28;45558;-66
2021/11/30 05:17:54;;;;;;;;;13.00;11.75;;;;;8.45;59.96;101441.69;5019844;28;45353;-66
2021/11/30 05:20:20;;;;;;;;;13.50;11.50;;;;;8.47;60.46;101445.19;5019487;28;45412;-66
2021/11/30 05:22:45;;;;;;;;;13.50;13.50;;;;;8.42;60.43;101436.34;5020109;28;45368;-66
2021/11/30 05:25:11;;;;;;;;;10.00;10.00;;;;;8.45;60.08;101436.34;5020019;28;45294;-66
2021/11/30 05:27:41;;;;;;;;;9.75;9.75;;;;;8.42;59.98;101428.38;5019832;28;45299;-65
2021/11/30 05:30:14;;;;;;;;;12.75;12.75;;;;;8.46;60.28;101438.09;5019735;28;46345;-66
2021/11/30 05:32:41;;;;;;;;;11.75;10.75;;;;;8.45;60.26;101423.06;5019816;28;45288;-66
2021/11/30 05:35:07;;;;;;;;;12.75;12.75;;;;;8.42;60.40;101419.50;5020098;28;45289;-66
2021/11/30 05:37:33;;;;;;;;;13.50;12.25;;;;;8.41;60.45;101421.28;5019900;28;45208;-66
2021/11/30 05:39:58;;;;;;;;;17.00;12.50;;;;;8.41;60.49;101421.28;5019560;28;46197;-66
2021/11/30 05:42:23;;;;;;;;;12.25;10.50;;;;;8.39;60.31;101414.25;5019303;28;45394;-66
2021/11/30 05:44:49;;;;;;;;;11.50;11.50;;;;;8.43;60.35;101423.97;5019647;28;45347;-66
2021/11/30 05:47:14;;;;;;;;;12.75;12.25;;;;;8.44;60.43;101417.75;5019922;28;45244;-66
2021/11/30 05:49:39;;;;;;;;;11.25;10.00;;;;;8.45;60.41;101415.06;5019187;28;45965;-66
2021/11/30 05:52:06;;;;;;;;;13.50;12.50;;;;;8.48;60.27;101423.00;5019597;28;45477;-66
2021/11/30 05:54:31;;;;;;;;;16.25;12.25;;;;;8.50;60.46;101434.53;5019768;28;45333;-66
2021/11/30 05:56:57;;;;;;;;;18.00;12.75;;;;;8.50;60.45;101423.88;5019604;28;45573;-66
2021/11/30 05:59:22;;;;;;;;;10.25;10.25;;;;;8.45;60.75;101423.06;5019513;28;45387;-65
2021/11/30 06:01:48;;;;;;;;;12.50;12.50;;;;;8.46;60.69;101430.13;5019583;28;45385;-65
2021/11/30 06:04:13;;;;;;;;;13.00;12.00;;;;;8.46;60.81;101422.13;5018617;28;45419;-66
2021/11/30 06:06:39;;;;;;;;;19.75;13.75;;;;;8.47;60.98;101423.91;5019224;28;45548;-66
2021/11/30 06:09:07;;;;;;;;;11.50;11.50;;;;;8.48;60.65;101419.47;5019370;28;46362;-66
2021/11/30 06:11:33;;;;;;;;;13.00;13.00;;;;;8.53;60.90;101426.47;5020193;28;45565;-66
2021/11/30 06:13:59;;;;;;;;;14.00;10.25;;;;;8.55;60.72;101421.13;5020785;28;45340;-65
2021/11/30 06:16:25;;;;;;;;;10.25;9.75;;;;;8.46;60.80;101407.97;5022167;28;45440;-66
2021/11/30 06:18:50;;;;;;;;;13.50;13.00;;;;;8.56;60.96;101425.56;5022366;28;46132;-66
2021/11/30 06:21:17;;;;;;;;;12.50;12.00;;;;;8.58;61.01;101428.22;5022816;28;45305;-66
2021/11/30 06:23:43;;;;;;;;;13.25;9.75;;;;;8.59;60.98;101428.19;5022808;28;45482;-65
2021/11/30 06:26:10;;;;;;;;;13.00;9.00;;;;;8.58;60.88;101426.41;5021827;28;45498;-65
2021/11/30 06:28:36;;;;;;;;;13.00;12.25;;;;;8.56;61.17;101422.03;5022152;28;46156;-66
2021/11/30 06:31:03;;;;;;;;;8.50;7.25;;;;;8.60;61.08;101424.59;5022398;28;45308;-66
2021/11/30 06:33:29;;;;;;;;;11.50;10.50;;;;;8.61;61.03;101430.84;5022637;28;45288;-66
2021/11/30 06:35:55;;;;;;;;;11.00;9.00;;;;;8.58;61.30;101425.53;5022618;28;45323;-66
2021/11/30 06:38:20;;;;;;;;;10.75;10.00;;;;;8.61;61.07;101426.38;5022205;28;46968;-65
2021/11/30 06:40:46;;;;;;;;;12.25;9.50;;;;;8.56;61.38;101422.91;5020811;28;45359;-66
2021/11/30 06:43:11;;;;;;;;;13.75;10.25;;;;;8.50;60.94;101423.88;5022019;28;45240;-65
2021/11/30 06:45:36;;;;;;;;;12.00;9.50;;;;;8.58;61.31;101426.41;5022663;28;45485;-66
2021/11/30 06:48:02;;;;;;;;;13.75;12.75;;;;;8.53;61.42;101418.50;5021484;28;46681;-66
2021/11/30 06:50:27;;;;;;;;;12.25;10.00;;;;;8.60;61.08;101421.06;5021930;28;45348;-66
2021/11/30 06:52:53;;;;;;;;;14.00;13.00;;;;;8.62;61.18;101416.59;5022284;28;45371;-66
2021/11/30 06:55:19;;;;;;;;;10.75;9.25;;;;;8.60;61.19;101407.78;5022468;28;45326;-66
2021/11/30 06:57:44;;;;;;;;;11.25;10.25;;;;;8.64;61.20;101415.69;5022117;28;46239;-66
2021/11/30 07:00:12;;;;;;;;;11.50;11.50;;;;;8.66;61.10;101419.22;5018104;28;45439;-66
2021/11/30 07:02:39;;;;;;;;;13.25;9.25;;;;;8.67;61.39;101420.09;5019758;28;45511;-66
2021/11/30 07:05:18;;;;;;;;;14.50;13.00;;;;;8.63;61.32;101408.59;5021703;28;45370;-66
2021/11/30 07:15:30;;;;;;;;;12.50;10.25;;;;;8.69;61.33;101429.81;5021686;28;45421;-66
2021/11/30 07:17:57;;;;;;;;;10.25;9.00;;;;;8.69;61.52;101429.81;5021681;28;46112;-67
2021/11/30 07:20:23;;;;;;;;;12.25;10.50;;;;;8.67;61.34;101423.66;5021705;28;45619;-77
2021/11/30 07:22:48;;;;;;;;;9.50;9.50;;;;;8.64;61.48;101426.34;5021149;28;45594;-77
2021/11/30 07:25:13;;;;;;;;;14.25;11.75;;;;;8.67;61.25;101434.28;5021316;28;45288;-78
2021/11/30 07:27:39;;;;;;;;;11.25;9.50;;;;;8.67;61.56;101433.41;5021874;28;45339;-80
2021/11/30 07:30:05;;;;;;;;;11.00;10.50;;;;;8.68;61.95;101428.06;5021552;28;45291;-79
2021/11/30 07:32:31;;;;;;;;;12.00;12.00;;;;;8.66;61.77;101429.88;5021438;28;45390;-79
2021/11/30 07:34:56;;;;;;;;;15.00;13.00;;;;;8.69;61.72;101427.16;5021561;28;45375;-78
2021/11/30 07:37:21;;;;;;;;;11.00;8.75;;;;;8.73;62.08;101427.13;5037057;28;46240;-78
2021/11/30 07:39:47;;;;;;;;;12.00;9.00;;;;;8.67;61.77;101423.66;5020709;28;45416;-69
2021/11/30 07:42:12;;;;;;;;;18.00;14.25;;;;;8.74;62.12;101437.75;5021389;28;45335;-70
2021/11/30 07:44:37;;;;;;;;;12.00;10.50;;;;;8.69;62.18;101437.81;5019501;28;45252;-69
2021/11/30 07:47:03;;;;;;;;;14.50;12.00;;;;;8.75;61.77;101439.50;5021326;28;45471;-69
2021/11/30 07:49:28;;;;;;;;;12.25;12.00;;;;;8.81;62.03;101442.09;5019411;28;45493;-70
2021/11/30 07:51:54;;;;;;;;;12.25;11.75;;;;;8.78;62.03;101434.13;5020248;28;45505;-70
2021/11/30 07:54:19;;;;;;;;;18.75;15.75;;;;;8.79;62.24;101438.56;5021340;28;45608;-69
2021/11/30 07:56:47;;;;;;;;;17.00;10.25;;;;;8.83;62.29;101448.25;5021351;28;45913;-70
2021/11/30 07:59:12;;;;;;;;;13.75;13.50;;;;;8.83;61.85;101444.72;5021182;28;45626;-69
2021/11/30 08:01:39;;;;;;;;;18.50;14.50;;;;;8.79;62.15;101435.91;5020864;28;45434;-70
2021/11/30 08:04:04;;;;;;;;;16.50;13.50;;;;;8.82;62.24;101437.63;5017342;28;45337;-70
2021/11/30 08:06:30;;;;;;;;;15.25;15.25;;;;;8.87;62.13;101450.00;5020906;28;45929;-69
2021/11/30 08:08:56;;;;;;;;;14.25;13.25;;;;;8.84;62.19;101447.38;5021235;28;45381;-70
2021/11/30 08:11:21;;;;;;;;;17.50;15.00;;;;;8.85;62.15;101454.47;5020398;28;45566;-70
2021/11/30 08:13:46;;;;;;;;;15.00;14.25;;;;;8.85;62.41;101450.91;5017622;28;45632;-69
2021/11/30 08:16:12;;;;;;;;;13.50;13.50;;;;;8.86;62.03;101448.22;5020829;28;46154;-69
2021/11/30 08:18:37;;;;;;;;;11.00;8.25;;;;;8.94;62.08;101461.44;5020584;28;45363;-69
2021/11/30 08:21:02;;;;;;;;;19.00;15.50;;;;;8.97;62.17;101449.84;5019674;28;45465;-68
2021/11/30 08:23:28;;;;;;;;;15.00;14.75;;;;;8.93;61.97;101453.47;5023067;28;45497;-70
2021/11/30 08:25:53;;;;;;;;;13.50;13.50;;;;;8.94;61.90;101453.44;5020427;28;46008;-68
2021/11/30 08:28:18;;;;;;;;;13.75;12.75;;;;;8.94;62.41;101461.44;5009709;28;45778;-68
2021/11/30 08:30:47;;;;;;;;;18.50;17.00;;;;;8.96;62.24;101459.63;5015336;28;45505;-69
2021/11/30 08:33:13;;;;;;;;;18.00;17.00;;;;;8.93;61.99;101461.47;5017514;28;45619;-69
2021/11/30 08:35:38;;;;;;;;;20.75;15.75;;;;;8.90;61.93;101460.59;5017370;28;46039;-69
2021/11/30 08:38:05;;;;;;;;;14.50;14.25;;;;;8.88;62.43;101457.06;5019069;28;45435;-69
2021/11/30 08:40:30;;;;;;;;;18.75;17.00;;;;;8.92;62.48;101454.38;5017797;28;45671;-69
2021/11/30 08:42:56;;;;;;;;;17.75;15.50;;;;;8.89;62.40;101452.63;5019478;28;45686;-69
2021/11/30 08:45:21;;;;;;;;;19.50;15.75;;;;;8.93;62.60;101458.78;5019883;28;46146;-68
2021/11/30 08:47:46;;;;;;;;;19.00;17.25;;;;;8.98;62.22;101470.25;5019282;28;45542;-69
2021/11/30 08:50:17;;;;;;;;;20.75;15.50;;;;;8.98;62.14;101464.94;5019105;28;45508;-68
2021/11/30 08:52:44;;;;;;;;;20.25;17.25;;;;;8.99;62.04;101462.25;5018875;28;45445;-69
2021/11/30 08:55:10;;;;;;;;;18.50;15.25;;;;;9.02;62.50;101450.66;5019377;28;45406;-69
2021/11/30 08:57:37;;;;;;;;;24.00;19.75;;;;;9.04;62.29;101462.19;5018179;28;45653;-69
2021/11/30 09:00:07;;;;;;;;;21.00;19.50;;;;;9.06;62.20;101457.72;5019228;28;45394;-69
2021/11/30 09:02:35;;;;;;;;;19.00;17.50;;;;;9.00;62.11;101449.81;5018935;28;45359;-69
2021/11/30 09:05:00;;;;;;;;;41.00;38.75;;;;;9.04;62.04;101449.75;5018074;28;45486;-69
2021/11/30 09:07:26;;;;;;;;;20.25;19.50;;;;;9.11;62.49;101457.66;5018997;28;45370;-69
2021/11/30 09:09:51;;;;;;;;;27.75;19.75;;;;;9.10;62.38;101451.44;5019629;28;45354;-69
2021/11/30 09:12:17;;;;;;;;;20.25;18.25;;;;;9.07;62.23;101446.13;5018585;28;45689;-69
2021/11/30 09:14:45;;;;;;;;;24.00;20.00;;;;;9.14;62.51;101455.81;5016435;28;46324;-69
2021/11/30 09:17:10;;;;;;;;;25.50;19.50;;;;;9.13;62.30;101454.06;5018960;28;45310;-69
2021/11/30 09:19:36;;;;;;;;;27.00;21.75;;;;;9.14;61.80;101450.50;5019546;28;45339;-68
2021/11/30 09:22:01;;;;;;;;;23.00;22.00;;;;;9.18;62.71;101456.66;5017881;28;45440;-69
2021/11/30 09:24:27;;;;;;;;;20.25;19.75;;;;;9.18;62.30;101456.66;5018632;28;46209;-69
2021/11/30 09:26:52;;;;;;;;;26.25;20.50;;;;;9.23;62.20;101465.44;5019395;28;45442;-69
2021/11/30 09:29:18;;;;;;;;;20.75;19.00;;;;;9.19;62.50;101459.28;5019478;28;45334;-69
2021/11/30 09:31:44;;;;;;;;;24.00;21.50;;;;;9.20;62.60;101458.38;5018382;28;45512;-69
2021/11/30 09:34:10;;;;;;;;;22.50;21.75;;;;;9.23;62.36;101462.78;5018519;28;45370;-69
2021/11/30 09:36:36;;;;;;;;;17.50;14.75;;;;;9.24;62.85;101460.09;5019571;28;45429;-69
2021/11/30 09:39:05;;;;;;;;;24.25;19.00;;;;;9.28;62.96;101466.25;5018692;28;45545;-69
2021/11/30 09:41:31;;;;;;;;;22.00;21.25;;;;;9.26;62.92;101455.63;5018539;28;45365;-69
2021/11/30 09:43:56;;;;;;;;;20.00;19.50;;;;;9.22;62.58;101456.59;5017633;28;45419;-69
2021/11/30 09:46:22;;;;;;;;;26.00;20.50;;;;;9.25;62.60;101460.97;5018850;28;45406;-69
2021/11/30 09:48:48;;;;;;;;;26.25;22.25;;;;;9.29;63.08;101470.69;5018915;28;45477;-68
2021/11/30 09:51:13;;;;;;;;;20.50;19.50;;;;;9.28;62.91;101461.81;5018160;28;45461;-69
2021/11/30 09:53:39;;;;;;;;;25.25;23.75;;;;;9.33;63.20;101463.53;5018450;28;46068;-68
2021/11/30 09:56:05;;;;;;;;;22.50;21.25;;;;;9.34;62.82;101467.94;5018596;28;45331;-69
2021/11/30 09:58:30;;;;;;;;;25.00;21.75;;;;;9.33;63.32;101453.75;5019186;28;45446;-68
2021/11/30 10:00:59;;;;;;;;;26.00;24.00;;;;;9.33;62.99;101453.75;5018522;28;45485;-72
2021/11/30 10:03:26;;;;;;;;;19.75;16.25;;;;;9.34;63.38;101446.63;5017597;28;45543;-69
2021/11/30 10:05:54;;;;;;;;;21.25;19.50;;;;;9.36;63.54;101445.72;5018881;28;45562;-69
2021/11/30 10:08:39;;;;;;;;;26.00;21.00;;;;;9.38;63.32;101451.00;5018780;28;45226;-69
2021/11/30 10:11:05;;;;;;;;;20.00;17.25;;;;;9.41;63.45;101449.16;5013033;28;45478;-68
2021/11/30 10:13:31;;;;;;;;;18.00;15.50;;;;;9.41;63.30;101442.97;5017963;28;45448;-69
2021/11/30 10:16:01;;;;;;;;;21.50;18.75;;;;;9.44;63.59;101446.47;5018827;28;45359;-69
2021/11/30 10:18:37;;;;;;;;;19.00;17.75;;;;;9.46;63.50;101436.66;5018135;28;45399;-69
2021/11/30 10:21:08;;;;;;;;;18.75;16.00;;;;;9.50;63.83;101437.47;5017146;28;45593;-69
2021/11/30 10:23:46;;;;;;;;;15.50;14.25;;;;;9.53;63.81;101440.09;5017527;28;46393;-69
2021/11/30 10:26:12;;;;;;;;;21.00;18.50;;;;;9.56;63.93;101439.19;5018630;28;45386;-69
2021/11/30 10:28:37;;;;;;;;;19.75;15.75;;;;;9.60;63.22;101440.88;5017079;28;45571;-69
2021/11/30 10:31:08;;;;;;;;;19.75;16.25;;;;;9.56;63.83;101429.38;5018621;28;45657;-69
2021/11/30 10:33:34;;;;;;;;;20.25;18.50;;;;;9.53;63.51;101417.91;5018594;28;45376;-69
2021/11/30 10:36:01;;;;;;;;;17.75;15.00;;;;;9.59;63.69;101431.13;5018592;28;45373;-69
2021/11/30 10:38:41;;;;;;;;;15.75;15.50;;;;;9.64;63.36;101440.78;5018959;28;45222;-69
2021/11/30 10:41:11;;;;;;;;;18.00;16.75;;;;;9.68;63.62;101444.28;5018235;28;45489;-69
2021/11/30 10:43:40;;;;;;;;;15.75;14.75;;;;;9.66;63.58;101435.44;5018269;28;46633;-69
2021/11/30 10:46:18;;;;;;;;;15.75;13.50;;;;;9.71;63.67;101438.03;5018584;28;45825;-69
2021/11/30 10:48:44;;;;;;;;;20.00;14.50;;;;;9.67;63.64;101442.50;5017988;28;45775;-69
2021/11/30 10:51:09;;;;;;;;;16.75;15.75;;;;;9.69;63.67;101440.72;5018581;28;45381;-69
2021/11/30 10:53:35;;;;;;;;;13.75;13.50;;;;;9.68;64.02;101438.09;5018105;28;45454;-69
2021/11/30 10:56:06;;;;;;;;;10.75;10.25;;;;;9.73;63.66;101430.88;5018599;28;45342;-69
2021/11/30 10:58:35;;;;;;;;;11.50;11.25;;;;;9.74;63.97;101428.19;5019448;28;45391;-69
2021/11/30 11:01:07;;;;;;;;;19.25;14.00;;;;;9.74;63.71;101422.84;5021063;28;45316;-73
2021/11/30 11:03:33;;;;;;;;;15.25;14.25;;;;;9.81;63.59;101431.63;5016689;28;46100;-72
2021/11/30 11:08:47;;;;;;;;;7.50;7.00;;;;;9.88;63.65;101416.41;5015901;28;45728;-69
2021/11/30 11:11:23;;;;;;;;;15.75;14.75;;;;;9.90;64.20;101422.56;5020779;28;45758;-69
2021/11/30 11:13:48;;;;;;;;;16.50;14.00;;;;;9.91;64.16;101408.34;5020677;28;46435;-69
2021/11/30 11:16:25;;;;;;;;;16.00;16.00;;;;;9.93;63.63;101403.84;5021358;28;45201;-69
2021/11/30 11:18:56;;;;;;;;;13.50;12.00;;;;;9.91;64.06;101403.88;5023568;28;45474;-69
2021/11/30 11:21:31;;;;;;;;;14.50;13.50;;;;;9.97;64.36;101409.09;5021204;28;45326;-69
2021/11/30 11:24:03;;;;;;;;;12.00;11.25;;;;;9.98;64.15;101405.50;5021283;28;45537;-69
2021/11/30 11:26:43;;;;;;;;;10.25;9.00;;;;;10.01;64.00;101393.91;5021107;28;45621;-69
2021/11/30 11:29:41;;;;;;;;;12.25;11.25;;;;;10.05;64.19;101382.25;5020928;28;45359;-69
2021/11/30 11:32:07;;;;;;;;;14.50;14.50;;;;;10.04;64.41;101388.53;5020686;28;45599;-69